Terminal Aerodrome Forecast
Issued by NWS Wilmington, OH

Current Version | Previous Version | Text Only | Print | Product List | Glossary Off
Versions: 1 2 3 4 5 6 7 8 9 10 11 12 13 14 15 16 17 18 19 20 21

000
FTUS41 KILN 010200 AAA
TAFCMH
TAF AMD
KCMH 010249Z 0103/0124 VRB03KT P6SM BKN021
     FM010600 VRB03KT 5SM BR BKN015
      TEMPO 0108/0112 2SM BR OVC007
     FM011500 06003KT P6SM BKN025
     FM011700 31005KT P6SM BKN040=

USA.gov is the U.S. government's official web portal to all federal, state and local government web resources and services.